createdAt,value
2023-05-16T04:34:39.639Z,13.34
2023-05-16T04:37:08.578Z,13.44
2023-05-16T04:39:36.748Z,13.55
2023-05-16T04:42:04.530Z,13.66
2023-05-16T04:44:31.821Z,13.79
2023-05-16T04:46:58.924Z,13.92
2023-05-16T04:49:26.282Z,14.02
2023-05-16T04:51:53.457Z,14.13
2023-05-16T04:54:20.375Z,14.24
2023-05-16T04:56:47.341Z,14.34
2023-05-16T04:59:14.327Z,14.44
2023-05-16T05:01:41.385Z,14.56
2023-05-16T05:04:08.424Z,14.69
2023-05-16T05:06:35.369Z,14.80
2023-05-16T05:09:02.273Z,14.92
2023-05-16T05:11:29.144Z,15.02
2023-05-16T05:13:56.016Z,15.12
2023-05-16T05:16:23.347Z,15.23
2023-05-16T05:18:50.697Z,15.32
2023-05-16T05:21:20.491Z,15.43
2023-05-16T05:23:51.451Z,15.55
2023-05-16T05:26:19.486Z,15.66
2023-05-16T05:29:03.976Z,15.76
2023-05-16T05:31:33.838Z,15.88
2023-05-16T05:38:02.999Z,16.07
2023-05-16T05:49:27.401Z,16.10
2023-05-16T05:53:01.082Z,16.15
2023-05-16T05:59:17.757Z,16.23
2023-05-16T06:02:56.852Z,16.25
2023-05-16T06:05:32.975Z,16.24
2023-05-16T06:08:02.066Z,16.21
2023-05-16T06:10:33.013Z,16.17
2023-05-16T06:13:03.674Z,16.13
2023-05-16T06:15:32.231Z,16.11
2023-05-16T06:18:05.856Z,16.11
2023-05-16T06:20:48.456Z,16.11
2023-05-16T06:30:05.106Z,16.07
2023-05-16T06:32:57.543Z,16.05
2023-05-16T06:35:43.236Z,16.04
2023-05-16T06:38:10.346Z,16.04
2023-05-16T06:40:37.718Z,16.05
2023-05-16T06:43:05.289Z,16.06
2023-05-16T06:45:32.906Z,16.09
2023-05-16T06:48:00.123Z,16.12
2023-05-16T06:50:27.475Z,16.17
2023-05-16T06:52:56.758Z,16.23
2023-05-16T06:55:24.405Z,16.30
2023-05-16T06:57:52.114Z,16.36
2023-05-16T07:00:19.847Z,16.42
2023-05-16T07:02:47.260Z,16.48
2023-05-16T07:05:14.381Z,16.57
2023-05-16T07:08:30.202Z,16.67
2023-05-16T07:11:21.962Z,16.83
2023-05-16T07:14:13.398Z,16.94
2023-05-16T07:17:13.194Z,17.06
2023-05-16T07:20:42.324Z,17.12
2023-05-16T07:23:57.316Z,17.19
2023-05-16T07:26:29.307Z,17.24
2023-05-16T07:28:58.133Z,17.29
2023-05-16T07:31:26.903Z,17.37
2023-05-16T07:33:54.069Z,17.47
2023-05-16T07:36:21.445Z,17.57
2023-05-16T07:38:48.460Z,17.65
2023-05-16T07:41:15.434Z,17.68
2023-05-16T07:43:42.562Z,17.71
2023-05-16T07:46:10.395Z,17.74
2023-05-16T07:48:41.195Z,17.76
2023-05-16T07:51:09.435Z,17.73
2023-05-16T07:53:36.703Z,17.68
2023-05-16T07:56:05.856Z,17.65
2023-05-16T07:58:36.472Z,17.66
2023-05-16T08:01:03.805Z,17.70
2023-05-16T08:03:37.959Z,17.74
2023-05-16T08:06:21.653Z,17.79
2023-05-16T08:09:33.781Z,17.81
2023-05-16T08:20:20.456Z,18.00
2023-05-16T08:24:08.437Z,18.08
2023-05-16T08:27:30.259Z,18.16
2023-05-16T08:30:35.097Z,18.22
2023-05-16T08:33:05.130Z,18.23
2023-05-16T08:35:32.741Z,18.26
2023-05-16T08:38:00.892Z,18.27
2023-05-16T08:40:28.656Z,18.30
2023-05-16T08:43:01.652Z,18.34
2023-05-16T08:46:32.032Z,18.39
2023-05-16T08:58:05.293Z,18.52
2023-05-16T09:01:33.993Z,18.55
2023-05-16T09:05:03.580Z,18.56
2023-05-16T09:08:43.988Z,18.59
2023-05-16T09:15:53.263Z,18.70
2023-05-16T09:18:45.516Z,18.67
2023-05-16T09:21:19.182Z,18.69
2023-05-16T09:23:46.647Z,18.71
2023-05-16T09:26:20.013Z,18.74
2023-05-16T09:29:19.724Z,18.76
2023-05-16T09:33:08.061Z,18.80
2023-05-16T09:39:58.433Z,18.86
2023-05-16T09:42:34.070Z,18.87
2023-05-16T09:45:12.205Z,18.85
2023-05-16T09:47:46.141Z,18.84
2023-05-16T09:50:17.405Z,18.84
2023-05-16T09:52:46.555Z,18.85
2023-05-16T09:55:17.487Z,18.86
2023-05-16T09:57:45.181Z,18.87
2023-05-16T10:00:13.770Z,18.88
2023-05-16T10:02:40.845Z,18.92
2023-05-16T10:05:08.343Z,18.96
2023-05-16T10:07:35.676Z,19.00
2023-05-16T10:10:08.613Z,19.04
2023-05-16T10:12:35.868Z,19.07
2023-05-16T10:15:03.352Z,19.09
2023-05-16T10:17:32.554Z,19.13
2023-05-16T10:20:05.930Z,19.14
2023-05-16T10:22:36.162Z,19.17
2023-05-16T10:25:10.619Z,19.19
2023-05-16T10:27:37.642Z,19.21
2023-05-16T10:30:05.937Z,19.25
2023-05-16T10:32:32.992Z,19.27
2023-05-16T10:35:03.340Z,19.27
2023-05-16T10:37:31.291Z,19.27
2023-05-16T10:40:00.081Z,19.27
2023-05-16T10:42:27.033Z,19.27
2023-05-16T10:45:05.026Z,19.27
2023-05-16T10:47:33.157Z,19.30
2023-05-16T10:50:00.191Z,19.36
2023-05-16T10:52:33.902Z,19.39
2023-05-16T10:55:02.926Z,19.39
2023-05-16T10:57:29.852Z,19.40
2023-05-16T11:00:01.820Z,19.39
2023-05-16T11:02:33.862Z,19.37
2023-05-16T11:05:02.088Z,19.35
2023-05-16T11:07:36.755Z,19.35
2023-05-16T11:10:11.668Z,19.35
2023-05-16T11:12:45.477Z,19.35
2023-05-16T11:15:24.892Z,19.38
2023-05-16T11:18:07.984Z,19.40
2023-05-16T11:20:36.430Z,19.42
2023-05-16T11:23:16.855Z,19.43
2023-05-16T11:25:45.806Z,19.44
2023-05-16T11:28:13.654Z,19.46
2023-05-16T11:30:44.837Z,19.47
2023-05-16T11:33:13.533Z,19.48
2023-05-16T11:35:40.655Z,19.48
2023-05-16T11:38:12.692Z,19.49
2023-05-16T11:40:43.004Z,19.50
2023-05-16T11:43:10.084Z,19.53
2023-05-16T11:45:37.498Z,19.55
2023-05-16T11:48:04.782Z,19.59
2023-05-16T11:50:34.204Z,19.61
2023-05-16T11:53:01.611Z,19.64
2023-05-16T11:55:41.005Z,19.68
2023-05-16T11:58:08.618Z,19.77
2023-05-16T12:00:35.877Z,19.88
2023-05-16T12:03:05.255Z,20.08
2023-05-16T12:05:34.317Z,20.39
2023-05-16T12:08:03.715Z,20.76
2023-05-16T12:10:31.583Z,21.14
2023-05-16T12:12:58.482Z,21.43
2023-05-16T12:15:25.774Z,21.68
2023-05-16T12:17:53.090Z,21.95
2023-05-16T12:20:20.265Z,22.19
2023-05-16T12:22:47.325Z,22.28
2023-05-16T12:25:32.279Z,22.31
2023-05-16T12:28:02.447Z,22.27
2023-05-16T12:30:31.930Z,22.27
2023-05-16T12:33:08.009Z,22.22
2023-05-16T12:35:37.559Z,22.05
2023-05-16T12:38:08.722Z,21.91
2023-05-16T12:40:42.473Z,21.81
2023-05-16T12:43:15.591Z,21.70
2023-05-16T12:45:43.496Z,21.56
2023-05-16T12:48:14.233Z,21.39
2023-05-16T12:50:41.949Z,21.22
2023-05-16T12:53:18.388Z,21.10
2023-05-16T12:55:45.454Z,21.01
2023-05-16T12:58:12.656Z,20.96
2023-05-16T13:00:39.984Z,20.93
2023-05-16T13:03:08.036Z,20.93
2023-05-16T13:05:36.557Z,20.92
2023-05-16T13:08:04.356Z,20.92
2023-05-16T13:10:31.430Z,20.92
2023-05-16T13:13:01.209Z,20.94
2023-05-16T13:15:28.643Z,20.94
2023-05-16T13:17:56.260Z,20.96
2023-05-16T13:20:23.658Z,21.00
